Time;durP1;ratioP1;P1;durP2;ratioP2;P2;SDS_P1;SDS_P2;PMS_P1;PMS_P2;Temp;Humidity;BMP_temperature;BMP_pressure;BME280_temperature;BME280_humidity;BME280_pressure;Samples;Min_cycle;Max_cycle;Signal;HPM_P1;HPM_P2
2022/03/13 00:02:50;;;;;;;16.23;9.70;;;6.20;56.40;;;;;;10401141;28;20230;-74
2022/03/13 00:07:55;;;;;;;13.10;9.30;;;6.10;56.60;;;;;;10391599;28;20593;-74
2022/03/13 00:12:56;;;;;;;15.87;9.77;;;6.10;56.50;;;;;;10388117;28;20273;-74
2022/03/13 00:17:59;;;;;;;17.23;9.87;;;6.00;57.30;;;;;;10399109;28;20219;-74
2022/03/13 00:23:00;;;;;;;16.10;10.03;;;6.00;56.40;;;;;;10396718;28;20223;-75
2022/03/13 00:28:00;;;;;;;15.43;10.97;;;5.90;56.50;;;;;;10391692;28;20232;-73
2022/03/13 00:33:02;;;;;;;17.97;10.97;;;5.90;57.10;;;;;;10372479;28;20224;-74
2022/03/13 00:38:03;;;;;;;19.20;12.17;;;5.90;56.80;;;;;;10385755;28;20224;-75
2022/03/13 00:43:04;;;;;;;13.87;9.53;;;5.80;57.10;;;;;;10401162;28;20270;-74
2022/03/13 00:48:05;;;;;;;16.23;8.83;;;5.80;57.90;;;;;;10382636;28;20228;-72
2022/03/13 00:53:06;;;;;;;15.50;9.07;;;5.70;58.00;;;;;;10392858;28;20229;-74
2022/03/13 00:58:06;;;;;;;14.27;8.40;;;5.70;57.60;;;;;;10391125;28;20308;-74
2022/03/13 01:03:29;;;;;;;13.67;8.83;;;5.60;58.10;;;;;;10398017;28;20209;-74
2022/03/13 01:08:29;;;;;;;12.63;9.23;;;5.60;58.50;;;;;;10391423;28;20296;-74
2022/03/13 01:13:31;;;;;;;12.50;9.03;;;5.50;58.10;;;;;;10393324;28;20650;-72
2022/03/13 01:18:32;;;;;;;13.93;9.60;;;5.60;57.00;;;;;;10407159;28;20213;-74
2022/03/13 01:23:32;;;;;;;13.97;9.63;;;5.70;56.90;;;;;;10391353;28;20270;-74
2022/03/13 01:28:33;;;;;;;14.47;10.53;;;5.70;56.80;;;;;;10399258;28;20716;-74
2022/03/13 01:33:34;;;;;;;16.37;11.00;;;5.60;57.20;;;;;;10397302;28;20225;-73
2022/03/13 01:38:34;;;;;;;13.83;9.77;;;5.50;57.80;;;;;;10398865;28;20259;-73
2022/03/13 01:43:36;;;;;;;17.70;9.70;;;5.50;57.70;;;;;;10399947;28;20224;-75
2022/03/13 01:48:59;;;;;;;13.00;8.67;;;5.60;57.00;;;;;;10399546;28;20239;-74
2022/03/13 01:54:09;;;;;;;16.00;9.50;;;5.70;56.10;;;;;;10392516;28;20224;-73
2022/03/13 01:59:14;;;;;;;13.97;8.17;;;5.80;55.60;;;;;;10403024;28;20318;-72
2022/03/13 02:04:24;;;;;;;13.57;7.97;;;5.80;54.90;;;;;;10390015;28;20225;-71
2022/03/13 02:09:27;;;;;;;10.17;7.37;;;5.90;53.50;;;;;;10393394;28;20217;-72
2022/03/13 02:14:28;;;;;;;11.50;7.47;;;5.90;52.80;;;;;;10397596;28;20213;-73
2022/03/13 02:19:29;;;;;;;11.60;7.33;;;6.00;52.50;;;;;;10390234;28;20666;-73
2022/03/13 02:24:29;;;;;;;9.27;7.17;;;6.10;52.00;;;;;;10387683;28;20305;-73
2022/03/13 02:29:33;;;;;;;11.00;6.90;;;6.10;51.50;;;;;;10399642;28;20275;-74
2022/03/13 02:34:35;;;;;;;12.27;6.93;;;6.10;51.10;;;;;;10410430;28;20217;-73
2022/03/13 02:39:37;;;;;;;9.33;6.97;;;6.20;50.60;;;;;;10394531;28;20285;-74
2022/03/13 02:44:38;;;;;;;11.10;7.50;;;6.20;50.30;;;;;;10391518;28;20225;-73
2022/03/13 02:49:39;;;;;;;10.23;6.83;;;6.20;50.00;;;;;;10404052;28;20731;-73
2022/03/13 02:54:39;;;;;;;12.50;7.27;;;6.30;50.10;;;;;;10398114;28;20261;-72
2022/03/13 02:59:40;;;;;;;11.17;7.10;;;6.30;50.00;;;;;;10393310;28;20216;-72
2022/03/13 03:04:43;;;;;;;13.27;7.27;;;6.20;50.30;;;;;;10396957;28;20248;-70
2022/03/13 03:09:50;;;;;;;12.00;7.40;;;6.20;50.00;;;;;;10395081;28;20643;-72
2022/03/13 03:14:51;;;;;;;11.37;7.30;;;6.10;50.30;;;;;;10387579;28;20308;-72
2022/03/13 03:19:52;;;;;;;10.67;7.07;;;6.10;50.70;;;;;;10407692;28;20307;-70
2022/03/13 03:24:56;;;;;;;11.43;7.20;;;6.10;50.50;;;;;;10414785;28;20248;-71
2022/03/13 03:29:58;;;;;;;11.47;6.63;;;6.10;50.50;;;;;;10405191;28;20752;-71
2022/03/13 03:35:01;;;;;;;10.13;7.13;;;6.10;50.50;;;;;;10387212;28;20229;-71
2022/03/13 03:40:05;;;;;;;11.20;6.83;;;6.00;50.60;;;;;;10406939;28;20220;-70
2022/03/13 03:45:07;;;;;;;10.40;6.80;;;5.90;50.70;;;;;;10385277;28;20748;-71
2022/03/13 03:50:10;;;;;;;9.67;7.47;;;5.90;50.90;;;;;;10389763;28;20207;-71
2022/03/13 03:55:12;;;;;;;12.97;7.27;;;5.80;51.10;;;;;;10385830;28;20323;-70
2022/03/13 04:00:15;;;;;;;11.33;7.60;;;5.80;51.20;;;;;;10397603;28;20197;-72
2022/03/13 04:05:16;;;;;;;10.77;6.97;;;5.70;51.20;;;;;;10384286;28;20242;-72
2022/03/13 04:10:16;;;;;;;12.27;6.87;;;5.80;51.10;;;;;;10386144;28;20655;-75
2022/03/13 04:15:17;;;;;;;9.80;7.53;;;5.70;51.10;;;;;;10390562;28;20186;-73
2022/03/13 04:20:17;;;;;;;9.53;6.80;;;5.70;51.20;;;;;;10389794;28;20246;-72
2022/03/13 04:25:21;;;;;;;9.90;6.97;;;5.60;51.20;;;;;;10396467;28;20212;-71
2022/03/13 04:30:21;;;;;;;11.27;7.33;;;5.60;51.30;;;;;;10392478;28;20602;-71
2022/03/13 04:35:22;;;;;;;13.03;6.90;;;5.50;51.10;;;;;;10401911;28;20191;-72
2022/03/13 04:40:23;;;;;;;10.10;6.93;;;5.50;51.20;;;;;;10388810;28;20818;-73
2022/03/13 04:45:25;;;;;;;10.80;6.63;;;5.40;51.50;;;;;;10395813;28;20260;-71
2022/03/13 04:50:25;;;;;;;11.27;6.80;;;5.30;51.50;;;;;;10386864;28;20712;-71
2022/03/13 04:55:28;;;;;;;8.10;6.10;;;5.30;51.20;;;;;;10389705;28;20224;-72
2022/03/13 05:00:29;;;;;;;11.23;6.40;;;5.30;51.20;;;;;;10388622;28;20660;-71
2022/03/13 05:05:29;;;;;;;10.43;7.10;;;5.20;51.20;;;;;;10387223;28;20315;-73
2022/03/13 05:10:36;;;;;;;10.57;6.50;;;5.20;51.40;;;;;;10396076;28;20229;-73
2022/03/13 05:15:36;;;;;;;11.40;7.03;;;5.20;51.50;;;;;;10387322;28;20271;-72
2022/03/13 05:20:37;;;;;;;10.00;6.77;;;5.20;51.80;;;;;;10397299;28;20299;-73
2022/03/13 05:25:41;;;;;;;10.43;5.90;;;5.10;51.90;;;;;;10402528;28;20251;-72
2022/03/13 05:30:42;;;;;;;8.40;6.23;;;5.00;52.00;;;;;;10397016;28;20221;-72
2022/03/13 05:35:42;;;;;;;8.97;6.40;;;5.00;52.10;;;;;;10398696;28;20228;-73
2022/03/13 05:40:46;;;;;;;12.47;6.53;;;5.00;51.90;;;;;;10385436;28;20283;-70
2022/03/13 05:45:49;;;;;;;10.70;6.77;;;5.00;52.00;;;;;;10388375;28;20311;-70
2022/03/13 05:50:50;;;;;;;8.03;6.03;;;4.90;51.90;;;;;;10395263;28;20224;-72
2022/03/13 05:55:53;;;;;;;9.03;6.73;;;4.90;52.00;;;;;;10390212;28;20220;-72
2022/03/13 06:01:08;;;;;;;10.93;6.07;;;4.90;52.20;;;;;;10382339;28;20712;-72
2022/03/13 06:06:14;;;;;;;9.90;6.67;;;4.90;51.80;;;;;;10391171;28;20607;-73
2022/03/13 06:11:22;;;;;;;8.27;6.53;;;5.00;51.90;;;;;;10384065;28;20225;-73
2022/03/13 06:16:24;;;;;;;9.57;6.17;;;5.00;51.60;;;;;;10389687;28;20227;-73
2022/03/13 06:21:27;;;;;;;10.37;6.90;;;5.10;51.40;;;;;;10397364;28;20228;-74
2022/03/13 06:26:28;;;;;;;8.30;6.20;;;5.20;51.40;;;;;;10391600;28;20236;-74
2022/03/13 06:31:36;;;;;;;9.17;6.43;;;5.30;51.10;;;;;;10403287;28;20224;-74
2022/03/13 06:36:39;;;;;;;10.07;6.50;;;5.40;50.80;;;;;;10398482;28;20267;-73
2022/03/13 06:41:47;;;;;;;10.67;6.03;;;5.50;50.20;;;;;;10402890;28;20229;-70
2022/03/13 06:46:55;;;;;;;10.03;6.40;;;5.60;50.60;;;;;;10403031;28;20236;-70
2022/03/13 06:51:56;;;;;;;9.50;6.17;;;5.70;50.30;;;;;;10391327;28;20217;-73
2022/03/13 06:56:59;;;;;;;7.93;5.70;;;5.90;49.70;;;;;;10396724;28;20221;-73
2022/03/13 07:02:02;;;;;;;9.17;6.10;;;6.30;49.10;;;;;;10395306;28;20608;-72
2022/03/13 07:07:05;;;;;;;9.87;6.03;;;6.90;47.30;;;;;;10407741;28;20225;-72
2022/03/13 07:12:11;;;;;;;11.77;6.63;;;7.20;46.70;;;;;;10389887;28;20216;-72
2022/03/13 07:17:15;;;;;;;11.57;6.73;;;7.40;46.10;;;;;;10400150;28;20256;-71
2022/03/13 07:22:18;;;;;;;12.10;6.07;;;7.30;46.10;;;;;;10395839;28;20228;-71
2022/03/13 07:27:19;;;;;;;9.00;5.83;;;7.20;46.50;;;;;;10395607;28;20243;-71
2022/03/13 07:32:20;;;;;;;8.50;6.07;;;7.30;46.50;;;;;;10404549;28;20224;-72
2022/03/13 07:37:24;;;;;;;8.27;6.23;;;7.80;46.20;;;;;;10399987;28;20252;-72
2022/03/13 07:42:27;;;;;;;8.73;6.47;;;9.00;44.30;;;;;;10393519;28;20258;-72
2022/03/13 07:47:30;;;;;;;11.27;6.47;;;11.90;39.90;;;;;;10394774;28;20233;-72
2022/03/13 07:52:34;;;;;;;12.83;6.97;;;14.00;35.60;;;;;;10391546;28;20217;-72
2022/03/13 07:57:35;;;;;;;9.57;5.90;;;15.60;32.40;;;;;;10397833;28;20695;-73
2022/03/13 08:02:36;;;;;;;8.27;6.67;;;15.70;31.40;;;;;;10401939;28;20224;-73
2022/03/13 08:07:36;;;;;;;9.77;7.33;;;16.30;31.20;;;;;;10389064;28;20233;-73
2022/03/13 08:12:38;;;;;;;9.73;6.40;;;17.50;29.40;;;;;;10396159;28;20232;-73
2022/03/13 08:17:39;;;;;;;8.10;7.00;;;18.00;28.40;;;;;;10392919;28;20692;-74
2022/03/13 08:22:42;;;;;;;8.43;6.60;;;18.80;28.10;;;;;;10390380;28;20319;-76
2022/03/13 08:27:43;;;;;;;9.43;6.97;;;19.50;27.70;;;;;;10392309;28;20260;-76
2022/03/13 08:32:44;;;;;;;8.93;7.33;;;20.40;26.90;;;;;;10392227;28;20286;-75
2022/03/13 08:37:45;;;;;;;8.20;7.27;;;21.20;25.90;;;;;;10396010;28;20332;-75
2022/03/13 08:42:45;;;;;;;9.43;7.63;;;19.80;27.00;;;;;;10395842;28;20627;-73
2022/03/13 08:47:48;;;;;;;11.40;8.23;;;19.40;28.10;;;;;;10391569;28;20224;-73
2022/03/13 08:52:49;;;;;;;9.83;7.10;;;18.90;28.60;;;;;;10382707;28;20243;-74
2022/03/13 08:57:55;;;;;;;8.00;7.07;;;19.50;28.20;;;;;;10391027;28;20224;-73
2022/03/13 09:02:56;;;;;;;8.80;7.37;;;19.70;27.60;;;;;;10401900;28;20583;-75
2022/03/13 09:08:02;;;;;;;9.70;7.33;;;20.40;27.40;;;;;;10394599;28;20812;-76
2022/03/13 09:13:03;;;;;;;8.70;7.27;;;20.30;27.20;;;;;;10383905;28;20224;-71
2022/03/13 09:18:05;;;;;;;9.03;7.63;;;20.90;26.50;;;;;;10385905;28;20708;-73
2022/03/13 09:23:08;;;;;;;10.73;7.43;;;20.70;26.40;;;;;;10401697;28;20224;-74
2022/03/13 09:28:14;;;;;;;9.13;6.90;;;20.40;27.10;;;;;;10392021;28;20323;-72
2022/03/13 09:33:15;;;;;;;7.73;6.93;;;20.00;26.60;;;;;;10393790;28;20692;-75
2022/03/13 09:38:18;;;;;;;8.97;7.43;;;20.70;26.10;;;;;;10386009;28;20223;-74
2022/03/13 09:43:19;;;;;;;9.70;6.63;;;21.30;26.00;;;;;;10396213;28;20228;-74
2022/03/13 09:48:23;;;;;;;8.43;6.93;;;23.80;23.90;;;;;;10379603;28;20331;-73
2022/03/13 09:53:24;;;;;;;7.57;6.80;;;23.30;23.40;;;;;;10402526;28;20227;-73
2022/03/13 09:58:28;;;;;;;8.60;7.43;;;22.10;24.80;;;;;;10388559;28;20897;-74
2022/03/13 10:03:31;;;;;;;12.90;7.30;;;21.20;24.90;;;;;;10395738;28;20591;-72
2022/03/13 10:08:32;;;;;;;9.10;7.27;;;22.10;24.90;;;;;;10398323;28;20232;-75
2022/03/13 10:13:43;;;;;;;8.97;7.47;;;22.20;24.90;;;;;;10406836;28;20249;-73
2022/03/13 10:18:46;;;;;;;9.80;7.70;;;22.30;24.50;;;;;;10401331;28;20309;-72
2022/03/13 10:23:49;;;;;;;11.23;7.23;;;22.40;24.80;;;;;;10397359;28;20311;-72
2022/03/13 10:28:53;;;;;;;9.77;7.40;;;23.80;23.80;;;;;;10387564;28;20320;-74
2022/03/13 10:33:57;;;;;;;8.80;7.60;;;24.90;22.90;;;;;;10401894;28;20597;-72
2022/03/13 10:39:02;;;;;;;9.83;7.57;;;24.80;22.80;;;;;;10397589;28;20234;-73
2022/03/13 10:44:04;;;;;;;8.70;7.63;;;24.60;23.20;;;;;;10381167;28;20220;-74
2022/03/13 10:49:08;;;;;;;8.60;7.23;;;24.50;22.70;;;;;;10407994;28;20642;-77
2022/03/13 10:54:36;;;;;;;8.47;7.47;;;26.40;22.10;;;;;;10391848;28;20233;-71
2022/03/13 10:59:39;;;;;;;8.47;7.67;;;25.30;21.70;;;;;;10395072;28;20228;-70
2022/03/13 11:05:15;;;;;;;9.33;8.27;;;23.90;23.20;;;;;;10406390;28;20777;-71
2022/03/13 11:10:18;;;;;;;8.73;7.83;;;23.30;24.10;;;;;;10349984;28;20643;-72
2022/03/13 11:15:21;;;;;;;10.50;8.13;;;24.30;23.60;;;;;;10395130;28;20192;-71
2022/03/13 11:20:24;;;;;;;9.67;8.20;;;23.40;23.40;;;;;;10398869;28;20674;-72
2022/03/13 11:25:28;;;;;;;11.83;8.20;;;24.60;23.60;;;;;;10388424;28;20252;-75
2022/03/13 11:30:36;;;;;;;9.40;8.33;;;23.50;24.10;;;;;;10386738;28;20231;-78
2022/03/13 11:35:40;;;;;;;13.77;8.63;;;22.90;24.10;;;;;;10397267;28;20227;-76
2022/03/13 11:40:43;;;;;;;11.30;8.40;;;19.60;27.20;;;;;;10384543;28;20252;-74
2022/03/13 11:45:52;;;;;;;10.33;8.80;;;17.60;29.80;;;;;;10389716;28;20677;-73
2022/03/13 11:51:04;;;;;;;12.50;9.23;;;16.60;31.70;;;;;;10397270;28;20227;-71
2022/03/13 11:56:10;;;;;;;11.20;8.90;;;16.10;32.90;;;;;;10400200;28;20262;-72
2022/03/13 12:01:19;;;;;;;11.57;10.17;;;16.10;33.40;;;;;;10389884;28;20238;-71
2022/03/13 12:06:52;;;;;;;14.07;9.80;;;15.90;33.50;;;;;;10393196;28;20777;-71
2022/03/13 12:12:05;;;;;;;13.37;10.33;;;15.70;34.00;;;;;;10394876;28;20224;-70
2022/03/13 12:17:08;;;;;;;16.30;9.53;;;15.40;34.10;;;;;;10392263;28;20232;-71
2022/03/13 12:22:11;;;;;;;14.67;9.70;;;15.40;34.80;;;;;;10392318;28;20231;-74
2022/03/13 12:27:12;;;;;;;13.60;10.63;;;15.10;35.00;;;;;;10399008;28;20691;-73
2022/03/13 12:32:13;;;;;;;13.83;10.03;;;15.10;35.70;;;;;;10393797;28;20220;-73
2022/03/13 12:37:14;;;;;;;18.37;12.00;;;15.30;36.10;;;;;;10394994;28;20463;-72
2022/03/13 12:42:23;;;;;;;14.20;11.30;;;15.40;36.50;;;;;;10393451;28;20258;-72
2022/03/13 12:47:39;;;;;;;15.87;11.43;;;15.20;36.40;;;;;;10399276;28;20260;-72
2022/03/13 12:52:44;;;;;;;14.63;10.90;;;15.30;36.60;;;;;;10379318;28;20235;-73
2022/03/13 12:57:51;;;;;;;18.10;11.57;;;15.50;36.70;;;;;;10372152;28;20235;-72
2022/03/13 13:03:03;;;;;;;17.13;11.13;;;15.60;36.80;;;;;;10381941;28;20582;-70
2022/03/13 13:08:09;;;;;;;14.40;11.07;;;15.80;36.60;;;;;;10387845;28;20231;-69
2022/03/13 13:13:21;;;;;;;14.10;10.83;;;15.80;36.90;;;;;;10389104;28;20227;-71
2022/03/13 13:18:23;;;;;;;13.77;10.70;;;15.90;36.60;;;;;;10393945;28;20274;-71
2022/03/13 13:23:29;;;;;;;15.93;11.53;;;16.10;36.80;;;;;;10397545;28;20228;-69
2022/03/13 13:28:29;;;;;;;16.47;12.60;;;15.90;36.80;;;;;;10398885;28;20748;-72
2022/03/13 13:33:33;;;;;;;15.53;12.00;;;16.00;36.80;;;;;;10387851;28;20216;-70
2022/03/13 13:38:34;;;;;;;16.00;11.23;;;15.80;36.80;;;;;;10385192;28;20341;-71
2022/03/13 13:43:44;;;;;;;18.83;13.00;;;15.80;37.40;;;;;;10381980;28;20809;-71
2022/03/13 13:48:45;;;;;;;15.80;12.20;;;16.00;37.40;;;;;;10390837;28;20266;-71
2022/03/13 13:54:13;;;;;;;17.97;12.43;;;16.20;36.70;;;;;;10392101;28;20220;-72
2022/03/13 13:59:44;;;;;;;16.80;12.83;;;16.30;37.10;;;;;;10394827;28;20715;-76
2022/03/13 14:04:48;;;;;;;15.60;13.33;;;16.20;36.90;;;;;;10390995;28;20232;-74
2022/03/13 14:10:02;;;;;;;20.17;13.40;;;16.10;37.20;;;;;;10400724;28;20584;-75
2022/03/13 14:15:03;;;;;;;20.13;13.37;;;16.00;37.60;;;;;;10388136;28;20228;-74
2022/03/13 14:20:08;;;;;;;19.17;13.10;;;15.90;38.20;;;;;;10383809;28;20240;-78
2022/03/13 14:25:09;;;;;;;16.00;12.67;;;15.70;38.20;;;;;;10388725;28;20252;-72
2022/03/13 14:30:10;;;;;;;17.03;12.53;;;15.80;38.40;;;;;;10388404;28;20200;-73
2022/03/13 14:35:14;;;;;;;17.83;13.70;;;15.70;38.50;;;;;;10380859;28;20192;-75
2022/03/13 14:40:18;;;;;;;16.93;12.13;;;15.70;38.40;;;;;;10396969;28;20230;-74
2022/03/13 14:45:22;;;;;;;16.03;13.23;;;15.70;38.50;;;;;;10399245;28;20216;-74
2022/03/13 14:50:22;;;;;;;15.87;13.37;;;15.80;39.50;;;;;;10403515;28;20193;-75
2022/03/13 14:55:23;;;;;;;17.30;13.17;;;15.70;38.80;;;;;;10402012;28;20200;-73
2022/03/13 15:00:24;;;;;;;19.30;12.63;;;15.50;39.30;;;;;;10391054;28;20616;-72
2022/03/13 15:05:27;;;;;;;19.73;13.97;;;15.60;39.00;;;;;;10394102;28;20255;-72
2022/03/13 15:10:29;;;;;;;19.13;14.07;;;15.70;39.00;;;;;;10402761;28;20231;-73
2022/03/13 15:15:30;;;;;;;20.50;13.57;;;15.80;38.70;;;;;;10391953;28;20231;-74
2022/03/13 15:20:32;;;;;;;16.10;12.90;;;15.80;39.10;;;;;;10391357;28;20834;-74
2022/03/13 15:25:33;;;;;;;18.97;14.47;;;15.80;38.60;;;;;;10403207;28;20225;-73
2022/03/13 15:30:36;;;;;;;16.27;12.80;;;15.80;38.80;;;;;;10395032;28;20593;-72
2022/03/13 15:35:36;;;;;;;19.33;13.67;;;15.60;38.80;;;;;;10399332;28;20238;-72
2022/03/13 15:40:38;;;;;;;18.77;12.73;;;15.40;39.00;;;;;;10406761;28;20247;-72
2022/03/13 15:45:42;;;;;;;22.63;13.97;;;15.40;39.10;;;;;;10389861;28;20236;-73
2022/03/13 15:50:42;;;;;;;19.27;13.20;;;15.30;39.40;;;;;;10395527;28;20266;-73
2022/03/13 15:55:43;;;;;;;21.77;14.00;;;15.20;39.20;;;;;;10396446;28;20235;-72
2022/03/13 16:00:46;;;;;;;17.40;12.93;;;15.10;39.30;;;;;;10379673;28;20897;-73
2022/03/13 16:05:49;;;;;;;16.37;12.30;;;15.00;39.30;;;;;;10406165;28;20231;-72
2022/03/13 16:10:50;;;;;;;15.73;11.63;;;14.90;39.50;;;;;;10391598;28;20271;-72
2022/03/13 16:15:55;;;;;;;14.93;11.27;;;14.80;39.90;;;;;;10391146;28;20739;-77
2022/03/13 16:20:58;;;;;;;17.47;11.57;;;14.70;39.70;;;;;;10389403;28;20695;-74
2022/03/13 16:25:59;;;;;;;15.63;10.97;;;14.60;40.10;;;;;;10401105;28;20227;-73
2022/03/13 16:31:02;;;;;;;17.07;10.80;;;14.60;39.90;;;;;;10396803;28;20224;-73
2022/03/13 16:36:03;;;;;;;17.17;11.10;;;14.50;40.20;;;;;;10391846;28;20817;-73
2022/03/13 16:41:04;;;;;;;14.77;10.87;;;14.30;40.20;;;;;;10375586;28;20299;-73
2022/03/13 16:46:04;;;;;;;12.80;10.43;;;14.20;40.40;;;;;;10392338;28;20255;-74
2022/03/13 16:51:10;;;;;;;16.10;10.70;;;14.10;41.30;;;;;;10402892;28;20587;-75
2022/03/13 16:56:11;;;;;;;15.07;10.53;;;14.10;40.70;;;;;;10398459;28;20711;-75
2022/03/13 17:01:11;;;;;;;14.27;9.30;;;14.00;40.80;;;;;;10390785;28;20228;-77
2022/03/13 17:06:17;;;;;;;12.90;9.50;;;14.00;40.90;;;;;;10400837;28;20645;-74
2022/03/13 17:11:18;;;;;;;15.43;9.57;;;13.90;40.90;;;;;;10389781;28;20255;-75
2022/03/13 17:16:22;;;;;;;13.40;9.47;;;13.80;41.40;;;;;;10391861;28;20676;-75
2022/03/13 17:21:23;;;;;;;11.37;9.23;;;13.60;41.50;;;;;;10386784;28;20229;-75
2022/03/13 17:26:45;;;;;;;12.73;9.90;;;13.50;41.70;;;;;;10392890;28;20337;-74
2022/03/13 17:31:47;;;;;;;12.77;9.43;;;13.40;41.80;;;;;;10392224;28;20224;-74
2022/03/13 17:36:52;;;;;;;14.33;9.60;;;13.40;42.00;;;;;;10398616;28;20667;-75
2022/03/13 17:41:55;;;;;;;13.97;10.03;;;13.30;42.10;;;;;;10388769;28;20605;-75
2022/03/13 17:47:23;;;;;;;12.30;9.47;;;13.20;42.20;;;;;;10398137;28;20233;-80
2022/03/13 18:10:11;;;;;;;14.73;9.83;;;12.90;42.80;;;;;;10320755;28;20217;-77
2022/03/13 18:15:20;;;;;;;13.13;9.87;;;12.70;43.20;;;;;;10308104;28;20224;-78
2022/03/13 18:20:47;;;;;;;13.37;9.37;;;12.60;43.60;;;;;;10324892;28;20288;-76
2022/03/13 18:31:07;;;;;;;13.37;9.90;;;12.30;43.80;;;;;;10285728;23;20239;-74
2022/03/13 18:36:14;;;;;;;14.13;9.70;;;12.20;44.10;;;;;;10274149;28;20234;-77
2022/03/13 18:41:17;;;;;;;12.60;10.13;;;12.10;44.30;;;;;;10376094;23;20243;-76
2022/03/13 18:51:37;;;;;;;13.43;10.80;;;11.90;44.60;;;;;;10338309;28;20228;-76
2022/03/13 18:56:46;;;;;;;14.20;9.70;;;11.90;44.70;;;;;;10355989;23;20228;-76
2022/03/13 19:01:50;;;;;;;13.43;10.00;;;11.80;44.80;;;;;;10380481;28;20253;-76
2022/03/13 19:06:56;;;;;;;12.37;10.13;;;11.80;44.80;;;;;;10337533;28;20257;-76
2022/03/13 19:11:57;;;;;;;15.53;9.87;;;11.70;45.10;;;;;;10366977;28;20213;-76
2022/03/13 19:16:59;;;;;;;13.00;9.73;;;11.50;45.40;;;;;;10377155;28;20256;-77
2022/03/13 19:22:02;;;;;;;13.70;10.20;;;11.40;45.40;;;;;;10394939;28;20224;-76
2022/03/13 19:27:04;;;;;;;13.00;10.27;;;11.40;45.40;;;;;;10378901;28;20265;-76
2022/03/13 19:32:09;;;;;;;12.93;9.80;;;11.30;45.50;;;;;;10334699;28;20258;-76
2022/03/13 19:37:19;;;;;;;12.83;10.60;;;11.20;45.90;;;;;;10425360;23;20231;-77
2022/03/13 19:42:30;;;;;;;15.07;10.50;;;11.10;46.10;;;;;;10356159;28;20323;-76
2022/03/13 19:52:52;;;;;;;;;;;;;;;;;;;;;
2022/03/13 19:57:55;;;;;;;16.10;10.30;;;11.00;46.40;;;;;;10354446;28;20229;-76
2022/03/13 20:08:06;;;;;;;14.23;9.93;;;10.90;46.80;;;;;;10299514;28;20783;-77
2022/03/13 20:13:08;;;;;;;15.17;11.33;;;10.90;46.60;;;;;;10387219;23;20239;-78
2022/03/13 20:23:27;;;;;;;14.07;10.80;;;10.80;46.90;;;;;;10327748;28;20272;-76
2022/03/13 21:23:40;;;;;;;18.03;12.70;;;10.40;48.30;;;;;;10354247;28;20222;-76
2022/03/13 21:35:39;;;;;;;;;;;;;;;;;;;;;
2022/03/13 21:46:02;;;;;;;16.27;11.53;;;10.60;48.50;;;;;;10593204;22;20377;-72
2022/03/13 21:51:05;;;;;;;13.10;10.37;;;10.60;49.10;;;;;;10391378;28;20232;-72
2022/03/13 21:56:06;;;;;;;15.23;11.33;;;10.50;48.60;;;;;;10392523;28;20247;-74
2022/03/13 22:01:07;;;;;;;14.83;11.97;;;10.60;48.80;;;;;;10406427;28;20224;-73
2022/03/13 22:06:08;;;;;;;14.60;11.37;;;10.60;49.00;;;;;;10392125;28;20235;-73
2022/03/13 22:11:11;;;;;;;17.70;12.10;;;10.60;49.50;;;;;;10404906;28;20327;-72
2022/03/13 22:16:14;;;;;;;13.87;11.03;;;10.50;49.30;;;;;;10403508;28;20287;-72
2022/03/13 22:21:19;;;;;;;16.40;11.30;;;10.50;49.20;;;;;;10392834;28;20235;-72
2022/03/13 22:26:23;;;;;;;14.73;10.47;;;10.50;49.10;;;;;;10387005;28;20699;-73
2022/03/13 22:31:30;;;;;;;14.83;10.43;;;10.50;48.70;;;;;;10406717;28;20290;-73
2022/03/13 22:36:31;;;;;;;14.83;10.90;;;10.50;48.90;;;;;;10375615;28;20569;-75
2022/03/13 22:41:33;;;;;;;13.27;10.40;;;10.40;49.10;;;;;;10403299;28;20237;-73
2022/03/13 22:46:37;;;;;;;12.70;10.43;;;10.40;49.40;;;;;;10383590;28;20331;-73
2022/03/13 22:51:37;;;;;;;14.63;10.37;;;10.30;49.70;;;;;;10378765;28;20239;-73
2022/03/13 22:56:48;;;;;;;17.57;11.83;;;10.30;49.80;;;;;;10382292;28;20236;-73
2022/03/13 23:01:49;;;;;;;17.10;11.43;;;10.20;49.60;;;;;;10397962;28;20235;-74
2022/03/13 23:06:52;;;;;;;18.43;11.83;;;10.30;49.50;;;;;;10388919;28;20247;-73
2022/03/13 23:11:56;;;;;;;22.60;11.90;;;10.30;49.80;;;;;;10407648;28;20237;-73
2022/03/13 23:16:59;;;;;;;29.43;14.13;;;10.30;49.80;;;;;;10404018;28;20237;-72
2022/03/13 23:22:00;;;;;;;32.87;16.23;;;10.30;49.50;;;;;;10397489;28;20221;-73
2022/03/13 23:27:02;;;;;;;23.33;14.57;;;10.40;49.80;;;;;;10396698;28;20648;-73
2022/03/13 23:32:07;;;;;;;16.10;11.10;;;10.40;49.90;;;;;;10396357;28;20228;-72
2022/03/13 23:37:13;;;;;;;12.47;9.70;;;10.40;49.10;;;;;;10398437;28;20237;-73
2022/03/13 23:42:16;;;;;;;16.00;10.37;;;10.40;49.00;;;;;;10404533;28;20659;-72
2022/03/13 23:47:18;;;;;;;15.20;9.77;;;10.40;48.50;;;;;;10404123;28;20240;-72
2022/03/13 23:52:19;;;;;;;13.27;10.33;;;10.30;48.40;;;;;;10387442;28;20235;-72
2022/03/13 23:57:22;;;;;;;14.40;10.93;;;10.30;48.90;;;;;;10401652;28;20672;-73
